KBFL/BFL METAR and TAF weather

Enter ICAO airport designator
Station Type Date Time Source
KBFL METAR 2024/04/18 05:54 UTC NOAA

KBFL 180554Z 07004KT 9SM CLR 21/13 A2996 RMK AO2 SLP142 T02060133 10272 20194 50010


Station Type Date Time Source
KBFL Decoded METAR 2024/04/18 05:54 UTC NOAA

BAKERSFIELD MEADOWS FIELD, CA, United States (KBFL) 35-26N 119-03W 151M
Apr 18, 2024 - 01:54 AM EDT / 2024.04.18 0554 UTC
Wind: from the ENE (070 degrees) at 5 MPH (4 KT):0
Visibility: 9 mile(s):0
Sky conditions: clear
Temperature: 69.1 F (20.6 C)
Dew Point: 55.9 F (13.3 C)
Relative Humidity: 62%
Pressure (altimeter): 29.96 in. Hg (1014 hPa)
Pressure tendency: 0.03 inches (1.0 hPa) higher than three hours ago
ob: KBFL 180554Z 07004KT 9SM CLR 21/13 A2996 RMK AO2 SLP142 T02060133 10272 20194 50010
cycle: 6

Station Type Date Time Source
KBFL TAF 2024/04/18 06:22 UTC NOAA